createdAt,value
2018-09-27T00:00:25.202Z,0.00
2018-09-27T00:01:25.193Z,0.00
2018-09-27T00:02:25.161Z,0.00
2018-09-27T00:03:25.188Z,0.00
2018-09-27T00:04:25.165Z,0.00
2018-09-27T00:05:25.164Z,0.00
2018-09-27T00:06:25.123Z,0.00
2018-09-27T00:07:25.114Z,0.00
2018-09-27T00:08:25.107Z,0.00
2018-09-27T00:09:25.123Z,0.00
2018-09-27T00:10:25.075Z,0.00
2018-09-27T00:11:25.063Z,0.00
2018-09-27T00:12:25.088Z,0.00
2018-09-27T00:13:25.035Z,0.00
2018-09-27T00:14:25.050Z,0.00
2018-09-27T00:15:25.019Z,0.00
2018-09-27T00:16:25.044Z,0.00
2018-09-27T00:17:24.998Z,0.00
2018-09-27T00:18:24.989Z,0.00
2018-09-27T00:19:25.063Z,0.00
2018-09-27T00:20:24.958Z,0.00
2018-09-27T00:21:24.942Z,0.00
2018-09-27T00:22:24.940Z,0.00
2018-09-27T00:23:24.925Z,0.00
2018-09-27T00:24:24.974Z,0.00
2018-09-27T00:25:24.915Z,0.00
2018-09-27T00:26:24.886Z,0.00
2018-09-27T00:27:24.880Z,0.00
2018-09-27T00:28:24.900Z,0.00
2018-09-27T00:29:24.864Z,0.00
2018-09-27T00:30:24.858Z,0.00
2018-09-27T00:31:24.862Z,0.00
2018-09-27T00:32:24.833Z,0.00
2018-09-27T00:33:24.811Z,0.00
2018-09-27T00:34:24.806Z,0.00
2018-09-27T00:35:24.830Z,0.00
2018-09-27T00:36:24.777Z,0.00
2018-09-27T00:37:24.811Z,0.00
2018-09-27T00:38:24.750Z,0.00
2018-09-27T00:39:24.756Z,0.00
2018-09-27T00:40:24.745Z,0.00
2018-09-27T00:41:24.743Z,0.00
2018-09-27T00:42:24.745Z,0.00
2018-09-27T00:43:24.695Z,0.00
2018-09-27T00:44:24.699Z,0.00
2018-09-27T00:45:24.697Z,0.00
2018-09-27T00:46:24.706Z,0.00
2018-09-27T00:47:24.669Z,0.00
2018-09-27T00:48:24.646Z,0.00
2018-09-27T00:49:24.685Z,0.00
2018-09-27T00:50:24.617Z,0.00
2018-09-27T00:51:24.662Z,0.00
2018-09-27T00:52:24.589Z,0.00
2018-09-27T00:53:24.594Z,0.00
2018-09-27T00:54:24.609Z,0.00
2018-09-27T00:55:24.558Z,0.00
2018-09-27T00:56:24.592Z,0.00
2018-09-27T00:57:24.572Z,0.00
2018-09-27T00:58:24.526Z,0.00
2018-09-27T00:59:24.546Z,0.00
2018-09-27T01:00:24.500Z,0.00
2018-09-27T01:01:24.498Z,0.00
2018-09-27T01:02:24.497Z,0.00
2018-09-27T01:03:24.480Z,0.00
2018-09-27T01:04:24.482Z,0.00
2018-09-27T01:05:24.451Z,0.00
2018-09-27T01:06:24.436Z,0.00
2018-09-27T01:07:24.469Z,0.00
2018-09-27T01:08:24.419Z,0.00
2018-09-27T01:09:24.422Z,0.00
2018-09-27T01:10:24.390Z,0.00
2018-09-27T01:11:24.412Z,0.00
2018-09-27T01:12:24.389Z,0.00
2018-09-27T01:13:24.386Z,0.00
2018-09-27T01:14:24.351Z,0.00
2018-09-27T01:15:24.368Z,0.00
2018-09-27T01:16:24.358Z,0.00
2018-09-27T01:17:24.320Z,0.00
2018-09-27T01:18:24.300Z,0.00
2018-09-27T01:19:24.291Z,0.00
2018-09-27T01:20:24.286Z,0.00
2018-09-27T01:21:24.301Z,0.00
2018-09-27T01:22:24.325Z,0.00
2018-09-27T01:23:24.268Z,0.00
2018-09-27T01:24:24.223Z,0.00
2018-09-27T01:25:24.239Z,0.00
2018-09-27T01:26:24.222Z,0.00
2018-09-27T01:27:24.201Z,0.00
2018-09-27T01:28:24.179Z,0.00
2018-09-27T01:29:24.256Z,0.00
2018-09-27T01:30:24.193Z,0.00
2018-09-27T01:31:24.173Z,0.00
2018-09-27T01:32:24.151Z,0.00
2018-09-27T01:33:24.132Z,0.00
2018-09-27T01:34:24.136Z,0.00
2018-09-27T01:35:24.102Z,0.00
2018-09-27T01:36:24.100Z,0.00
2018-09-27T01:37:24.111Z,0.00
2018-09-27T01:38:24.086Z,0.00
2018-09-27T01:39:24.095Z,0.00
2018-09-27T01:40:24.052Z,0.00
2018-09-27T01:41:24.038Z,0.00
2018-09-27T01:42:24.060Z,0.00
2018-09-27T01:43:24.021Z,0.00
2018-09-27T01:44:23.997Z,0.00
2018-09-27T01:45:23.994Z,0.00
2018-09-27T01:46:24.006Z,0.00
2018-09-27T01:47:23.962Z,0.00
2018-09-27T01:48:23.996Z,0.00
2018-09-27T01:49:23.978Z,0.00
2018-09-27T01:50:23.942Z,0.00
2018-09-27T01:51:23.979Z,0.00
2018-09-27T01:52:23.936Z,0.00
2018-09-27T01:53:23.900Z,0.00
2018-09-27T01:54:23.909Z,0.00
2018-09-27T01:55:23.910Z,0.00
2018-09-27T01:56:23.875Z,0.00
2018-09-27T01:57:23.852Z,0.00
2018-09-27T01:58:23.841Z,0.00
2018-09-27T01:59:23.887Z,0.00
2018-09-27T02:00:23.826Z,0.00
2018-09-27T02:01:23.810Z,0.00
2018-09-27T02:02:23.791Z,0.00
2018-09-27T02:03:23.784Z,0.00
2018-09-27T02:04:23.815Z,0.00
2018-09-27T02:05:23.780Z,0.00
2018-09-27T02:06:23.755Z,0.00
2018-09-27T02:07:23.749Z,0.00
2018-09-27T02:08:23.727Z,0.00
2018-09-27T02:09:23.726Z,0.00
2018-09-27T02:10:23.762Z,0.00
2018-09-27T02:11:23.685Z,0.00
2018-09-27T02:12:23.690Z,0.00
2018-09-27T02:13:23.675Z,0.00
2018-09-27T02:14:23.676Z,0.00
2018-09-27T02:15:23.654Z,0.00
2018-09-27T02:16:23.639Z,0.00
2018-09-27T02:17:23.625Z,0.00
2018-09-27T02:18:23.630Z,0.00
2018-09-27T02:19:23.604Z,0.00
2018-09-27T02:20:23.607Z,0.00
2018-09-27T02:21:23.577Z,0.00
2018-09-27T02:22:23.595Z,0.00
2018-09-27T02:23:23.595Z,0.00
2018-09-27T02:24:23.564Z,0.00
2018-09-27T02:25:23.595Z,0.00
2018-09-27T02:26:24.091Z,0.00
2018-09-27T02:27:23.525Z,0.00
2018-09-27T02:28:24.493Z,0.00
2018-09-27T02:29:23.536Z,0.00
2018-09-27T02:30:23.471Z,0.00
2018-09-27T02:31:23.484Z,0.00
2018-09-27T02:32:23.448Z,0.00
2018-09-27T02:33:23.449Z,0.00
2018-09-27T02:34:23.434Z,0.00
2018-09-27T02:35:23.432Z,0.00
2018-09-27T02:36:23.426Z,0.00
2018-09-27T02:37:23.404Z,0.00
2018-09-27T02:38:23.386Z,0.00
2018-09-27T02:39:23.408Z,0.00
2018-09-27T02:40:23.361Z,0.00
2018-09-27T02:41:23.412Z,0.00
2018-09-27T02:42:23.339Z,0.00
2018-09-27T02:43:23.328Z,0.00
2018-09-27T02:44:23.333Z,0.00
2018-09-27T02:45:23.306Z,0.00
2018-09-27T02:46:23.296Z,0.00
2018-09-27T02:47:23.326Z,0.00
2018-09-27T02:48:23.264Z,0.00
2018-09-27T02:49:23.256Z,0.00
2018-09-27T02:50:23.283Z,0.00
2018-09-27T02:51:23.234Z,0.00
2018-09-27T02:52:23.249Z,0.00
2018-09-27T02:53:23.220Z,0.00
2018-09-27T02:54:23.206Z,0.00
2018-09-27T02:55:23.190Z,0.00
2018-09-27T02:56:23.191Z,0.00
2018-09-27T02:57:23.163Z,0.00
2018-09-27T02:58:23.178Z,0.00
2018-09-27T02:59:23.163Z,0.00
2018-09-27T03:00:23.139Z,0.00
2018-09-27T03:01:23.133Z,0.00
2018-09-27T03:02:23.144Z,0.00
2018-09-27T03:03:23.099Z,0.00
2018-09-27T03:04:23.130Z,0.00
2018-09-27T03:05:23.079Z,0.00
2018-09-27T03:06:23.072Z,0.00
2018-09-27T03:07:23.068Z,0.00
2018-09-27T03:08:23.047Z,0.00
2018-09-27T03:09:23.039Z,0.00
2018-09-27T03:10:23.041Z,0.00
2018-09-27T03:11:23.063Z,0.00
2018-09-27T03:12:22.999Z,0.00
2018-09-27T03:13:23.012Z,0.00
2018-09-27T03:14:23.023Z,0.00
2018-09-27T03:15:22.994Z,0.00
2018-09-27T03:16:22.942Z,0.00
2018-09-27T03:17:22.973Z,0.00
2018-09-27T03:18:22.948Z,0.00
2018-09-27T03:19:22.968Z,0.00
2018-09-27T03:20:22.925Z,0.00
2018-09-27T03:21:22.905Z,0.00
2018-09-27T03:22:22.918Z,0.00
2018-09-27T03:23:22.894Z,0.00
2018-09-27T03:24:22.875Z,0.00
2018-09-27T03:25:22.904Z,0.00
2018-09-27T03:26:22.860Z,0.00
2018-09-27T03:27:22.830Z,0.00
2018-09-27T03:28:22.826Z,0.00
2018-09-27T03:29:22.821Z,0.00
2018-09-27T03:30:22.818Z,0.00
2018-09-27T03:31:22.779Z,0.00
2018-09-27T03:32:22.783Z,0.00
2018-09-27T03:33:22.760Z,0.00
2018-09-27T03:34:22.748Z,0.00
2018-09-27T03:35:22.742Z,0.00
2018-09-27T03:36:22.769Z,0.00
2018-09-27T03:37:22.715Z,0.00
2018-09-27T03:38:22.700Z,0.00
2018-09-27T03:39:22.687Z,0.00
2018-09-27T03:40:22.731Z,0.00
2018-09-27T03:41:22.655Z,0.00
2018-09-27T03:42:22.686Z,0.00
2018-09-27T03:43:22.639Z,0.00
2018-09-27T03:44:22.645Z,0.00
2018-09-27T03:45:22.613Z,0.00
2018-09-27T03:46:22.627Z,0.00
2018-09-27T03:47:22.632Z,0.00
2018-09-27T03:48:22.587Z,0.00
2018-09-27T03:49:22.609Z,0.00
2018-09-27T03:50:22.574Z,0.00
2018-09-27T03:51:22.552Z,0.00
2018-09-27T03:52:22.526Z,0.00
2018-09-27T03:53:22.553Z,0.00
2018-09-27T03:54:22.505Z,0.00
2018-09-27T03:55:22.539Z,0.00
2018-09-27T03:56:22.521Z,0.00
2018-09-27T03:57:22.484Z,0.00
2018-09-27T03:58:22.496Z,0.00
2018-09-27T03:59:22.453Z,0.00
2018-09-27T04:00:22.436Z,0.00
2018-09-27T04:01:22.428Z,0.00
2018-09-27T04:02:22.420Z,0.00
2018-09-27T04:03:22.529Z,0.00
2018-09-27T04:04:22.430Z,0.00
2018-09-27T04:05:22.444Z,0.00
2018-09-27T04:06:22.371Z,0.00
2018-09-27T04:07:22.385Z,0.00
2018-09-27T04:08:22.349Z,0.00
2018-09-27T04:09:22.336Z,0.00
2018-09-27T04:10:22.375Z,0.00
2018-09-27T04:11:22.317Z,0.00
2018-09-27T04:12:22.298Z,0.00
2018-09-27T04:13:22.295Z,0.00
2018-09-27T04:14:22.310Z,0.00
2018-09-27T04:15:22.305Z,0.00
2018-09-27T04:16:22.258Z,0.00
2018-09-27T04:17:22.250Z,0.00
2018-09-27T04:18:22.225Z,0.00
2018-09-27T04:19:22.234Z,0.00
2018-09-27T04:20:22.237Z,0.00
2018-09-27T04:21:22.209Z,0.00
2018-09-27T04:22:22.192Z,0.00
2018-09-27T04:23:22.195Z,0.00
2018-09-27T04:24:22.174Z,0.00
2018-09-27T04:25:22.157Z,0.00
2018-09-27T04:26:22.173Z,0.00
2018-09-27T04:27:22.222Z,0.00
2018-09-27T04:28:22.145Z,0.00
2018-09-27T04:29:22.108Z,0.00
2018-09-27T04:30:22.101Z,0.00
2018-09-27T04:31:22.128Z,0.00
2018-09-27T04:32:22.085Z,0.00
2018-09-27T04:33:22.060Z,0.00
2018-09-27T04:34:22.076Z,0.00
2018-09-27T04:35:22.079Z,0.00
2018-09-27T04:36:22.031Z,0.00
2018-09-27T04:37:22.054Z,0.00
2018-09-27T04:38:22.065Z,4.00
2018-09-27T04:39:22.025Z,4.00
2018-09-27T04:40:21.977Z,0.00
2018-09-27T04:41:21.966Z,0.00
2018-09-27T04:42:22.015Z,4.00
2018-09-27T04:43:21.945Z,4.00
2018-09-27T04:44:21.929Z,0.00
2018-09-27T04:45:21.937Z,4.00
2018-09-27T04:46:21.924Z,4.00
2018-09-27T04:47:21.904Z,4.00
2018-09-27T04:48:21.910Z,4.00
2018-09-27T04:49:21.873Z,8.00
2018-09-27T04:50:21.863Z,8.00
2018-09-27T04:51:21.853Z,8.00
2018-09-27T04:52:21.956Z,12.00
2018-09-27T04:53:21.872Z,8.00
2018-09-27T04:54:21.882Z,12.00
2018-09-27T04:55:21.819Z,16.00
2018-09-27T04:56:21.833Z,16.00
2018-09-27T04:57:21.795Z,20.00
2018-09-27T04:58:21.804Z,20.00
2018-09-27T04:59:21.778Z,24.00
2018-09-27T05:00:21.766Z,24.00
2018-09-27T05:01:21.760Z,28.00
2018-09-27T05:02:21.730Z,32.00
2018-09-27T05:03:21.715Z,32.00
2018-09-27T05:04:21.713Z,40.00
2018-09-27T05:05:21.698Z,44.00
2018-09-27T05:06:21.748Z,48.00
2018-09-27T05:07:21.701Z,48.00
2018-09-27T05:08:42.661Z,56.00
2018-09-27T05:09:21.693Z,56.00
2018-09-27T05:10:21.653Z,60.00
2018-09-27T05:11:21.623Z,60.00
2018-09-27T05:12:21.624Z,64.00
2018-09-27T05:13:21.645Z,68.00
2018-09-27T05:14:21.594Z,68.00
2018-09-27T05:15:21.604Z,76.00
2018-09-27T05:16:21.595Z,76.00
2018-09-27T05:17:21.556Z,84.00
2018-09-27T05:18:21.579Z,92.00
2018-09-27T05:19:21.534Z,96.00
2018-09-27T05:20:21.621Z,104.00
2018-09-27T05:21:21.531Z,112.00
2018-09-27T05:22:21.505Z,124.00
2018-09-27T05:23:21.491Z,128.00
2018-09-27T05:24:21.489Z,124.00
2018-09-27T05:25:21.474Z,124.00
2018-09-27T05:26:21.493Z,128.00
2018-09-27T05:27:21.489Z,140.00
2018-09-27T05:28:21.437Z,148.00
2018-09-27T05:29:21.430Z,164.00
2018-09-27T05:30:21.413Z,164.00
2018-09-27T05:31:21.436Z,164.00
2018-09-27T05:32:21.406Z,168.00
2018-09-27T05:33:21.384Z,176.00
2018-09-27T05:34:21.369Z,180.00
2018-09-27T05:35:21.366Z,180.00
2018-09-27T05:36:21.341Z,180.00
2018-09-27T05:37:21.364Z,184.00
2018-09-27T05:38:21.340Z,188.00
2018-09-27T05:39:21.316Z,188.00
2018-09-27T05:40:21.300Z,192.00
2018-09-27T05:41:21.328Z,204.00
2018-09-27T05:42:21.286Z,212.00
2018-09-27T05:43:21.283Z,208.00
2018-09-27T05:44:21.278Z,196.00
2018-09-27T05:45:21.263Z,192.00
2018-09-27T05:46:21.246Z,196.00
2018-09-27T05:47:21.245Z,204.00
2018-09-27T05:48:21.245Z,200.00
2018-09-27T05:49:21.210Z,200.00
2018-09-27T05:50:21.191Z,204.00
2018-09-27T05:51:21.222Z,208.00
2018-09-27T05:52:21.179Z,212.00
2018-09-27T05:53:21.247Z,212.00
2018-09-27T05:54:21.146Z,220.00
2018-09-27T05:55:21.151Z,228.00
2018-09-27T05:56:21.132Z,240.00
2018-09-27T05:57:21.187Z,256.00
2018-09-27T05:58:21.104Z,268.00
2018-09-27T05:59:21.136Z,292.00
2018-09-27T06:00:21.093Z,288.00
2018-09-27T06:01:21.092Z,288.00
2018-09-27T06:02:22.057Z,308.00
2018-09-27T06:03:21.095Z,320.00
2018-09-27T06:04:21.037Z,336.00
2018-09-27T06:05:21.033Z,344.00
2018-09-27T06:06:21.049Z,356.00
2018-09-27T06:07:20.996Z,372.00
2018-09-27T06:08:20.998Z,404.00
2018-09-27T06:09:21.052Z,424.00
2018-09-27T06:10:20.964Z,440.00
2018-09-27T06:11:21.045Z,476.00
2018-09-27T06:12:20.953Z,516.00
2018-09-27T06:13:20.985Z,556.00
2018-09-27T06:14:20.972Z,568.00
2018-09-27T06:15:20.909Z,560.00
2018-09-27T06:16:20.892Z,576.00
2018-09-27T06:17:20.917Z,608.00
2018-09-27T06:18:20.881Z,612.00
2018-09-27T06:19:20.909Z,624.00
2018-09-27T06:20:20.862Z,664.00
2018-09-27T06:21:20.872Z,664.00
2018-09-27T06:22:20.835Z,676.00
2018-09-27T06:23:20.872Z,692.00
2018-09-27T06:24:29.688Z,672.00
2018-09-27T06:25:21.021Z,668.00
2018-09-27T06:26:20.994Z,676.00
2018-09-27T06:27:21.907Z,680.00
2018-09-27T06:28:20.774Z,672.00
2018-09-27T06:29:20.789Z,664.00
2018-09-27T06:30:20.797Z,664.00
2018-09-27T06:31:20.732Z,664.00
2018-09-27T06:32:20.731Z,688.00
2018-09-27T06:33:20.708Z,708.00
2018-09-27T06:34:20.704Z,740.00
2018-09-27T06:35:20.702Z,736.00
2018-09-27T06:36:20.718Z,760.00
2018-09-27T06:37:20.663Z,816.00
2018-09-27T06:38:20.738Z,848.00
2018-09-27T06:39:20.659Z,876.00
2018-09-27T06:40:20.666Z,900.00
2018-09-27T06:41:20.654Z,928.00
2018-09-27T06:42:20.613Z,924.00
2018-09-27T06:43:20.596Z,932.00
2018-09-27T06:44:20.585Z,932.00
2018-09-27T06:45:20.586Z,944.00
2018-09-27T06:46:20.597Z,956.00
2018-09-27T06:47:20.589Z,944.00
2018-09-27T06:48:20.544Z,960.00
2018-09-27T06:49:20.533Z,980.00
2018-09-27T06:50:20.516Z,1016.00
2018-09-27T06:51:20.561Z,1048.00
2018-09-27T06:52:20.525Z,1088.00
2018-09-27T06:53:20.540Z,1096.00
2018-09-27T06:54:20.480Z,1108.00
2018-09-27T06:55:20.634Z,1164.00
2018-09-27T06:56:20.475Z,1204.00
2018-09-27T06:57:21.628Z,1212.00
2018-09-27T06:58:20.438Z,1228.00
2018-09-27T06:59:20.417Z,1240.00
2018-09-27T07:00:20.446Z,1236.00
2018-09-27T07:01:20.399Z,1228.00
2018-09-27T07:02:20.385Z,1220.00
2018-09-27T07:03:20.412Z,1224.00
2018-09-27T07:04:20.368Z,1240.00
2018-09-27T07:05:20.342Z,1224.00
2018-09-27T07:06:20.344Z,1192.00
2018-09-27T07:07:20.429Z,1124.00
2018-09-27T07:08:20.344Z,1068.00
2018-09-27T07:09:20.341Z,1024.00
2018-09-27T07:10:20.294Z,956.00
2018-09-27T07:11:20.282Z,872.00
2018-09-27T07:12:20.453Z,800.00
2018-09-27T07:13:20.278Z,756.00
2018-09-27T07:14:20.277Z,740.00
2018-09-27T07:15:20.229Z,692.00
2018-09-27T07:16:20.217Z,664.00
2018-09-27T07:17:20.204Z,668.00
2018-09-27T07:18:20.231Z,704.00
2018-09-27T07:19:20.187Z,768.00
2018-09-27T07:20:20.206Z,836.00
2018-09-27T07:21:20.193Z,904.00
2018-09-27T07:22:20.147Z,968.00
2018-09-27T07:23:20.157Z,1020.00
2018-09-27T07:24:20.152Z,1060.00
2018-09-27T07:25:20.200Z,1088.00
2018-09-27T07:26:20.111Z,1080.00
2018-09-27T07:27:20.090Z,1092.00
2018-09-27T07:28:20.123Z,1116.00
2018-09-27T07:29:20.082Z,1116.00
2018-09-27T07:30:20.057Z,1156.00
2018-09-27T07:31:20.065Z,1192.00
2018-09-27T07:32:20.047Z,1200.00
2018-09-27T07:33:20.083Z,1196.00
2018-09-27T07:34:20.002Z,1184.00
2018-09-27T07:35:20.006Z,1160.00
2018-09-27T07:36:20.003Z,1140.00
2018-09-27T07:37:19.985Z,1132.00
2018-09-27T07:38:19.982Z,1120.00
2018-09-27T07:39:19.954Z,1112.00
2018-09-27T07:40:19.986Z,1112.00
2018-09-27T07:41:19.937Z,1100.00
2018-09-27T07:42:19.932Z,1084.00
2018-09-27T07:43:19.973Z,1056.00
2018-09-27T07:44:19.899Z,1064.00
2018-09-27T07:45:19.888Z,1080.00
2018-09-27T07:46:19.911Z,1108.00
2018-09-27T07:47:19.872Z,1140.00
2018-09-27T07:48:19.883Z,1152.00
2018-09-27T07:49:19.872Z,1176.00
2018-09-27T07:50:19.873Z,1232.00
2018-09-27T07:51:19.815Z,1272.00
2018-09-27T07:52:19.809Z,1296.00
2018-09-27T07:53:20.632Z,1324.00
2018-09-27T07:54:19.809Z,1328.00
2018-09-27T07:55:19.817Z,1368.00
2018-09-27T07:56:19.768Z,1412.00
2018-09-27T07:57:20.647Z,1408.00
2018-09-27T07:58:19.751Z,1392.00
2018-09-27T07:59:19.736Z,1388.00
2018-09-27T08:00:19.765Z,1376.00
2018-09-27T08:01:19.738Z,1388.00
2018-09-27T08:02:19.714Z,1380.00
2018-09-27T08:03:19.685Z,1428.00
2018-09-27T08:04:19.723Z,1484.00
2018-09-27T08:05:19.685Z,1520.00
2018-09-27T08:06:19.661Z,1528.00
2018-09-27T08:07:19.637Z,1516.00
2018-09-27T08:08:19.673Z,1480.00
2018-09-27T08:09:19.614Z,1464.00
2018-09-27T08:10:19.694Z,1436.00
2018-09-27T08:11:19.675Z,1412.00
2018-09-27T08:12:19.579Z,1444.00
2018-09-27T08:13:19.567Z,1496.00
2018-09-27T08:14:19.583Z,1540.00
2018-09-27T08:15:19.573Z,1592.00
2018-09-27T08:16:19.556Z,1632.00
2018-09-27T08:17:19.581Z,1612.00
2018-09-27T08:18:19.543Z,1612.00
2018-09-27T08:19:19.504Z,1600.00
2018-09-27T08:20:20.188Z,1592.00
2018-09-27T08:21:19.688Z,1592.00
2018-09-27T08:22:22.172Z,1588.00
2018-09-27T08:23:30.680Z,1596.00
2018-09-27T08:24:19.450Z,1600.00
2018-09-27T08:25:19.428Z,1508.00
2018-09-27T08:26:19.471Z,1440.00
2018-09-27T08:27:19.411Z,1416.00
2018-09-27T08:28:19.394Z,1412.00
2018-09-27T08:29:19.386Z,1340.00
2018-09-27T08:30:19.456Z,1312.00
2018-09-27T08:31:19.363Z,1308.00
2018-09-27T08:32:19.395Z,1256.00
2018-09-27T08:33:19.347Z,1252.00
2018-09-27T08:34:19.327Z,1256.00
2018-09-27T08:35:19.363Z,1264.00
2018-09-27T08:36:19.310Z,1240.00
2018-09-27T08:37:19.338Z,1192.00
2018-09-27T08:38:19.315Z,1176.00
2018-09-27T08:39:19.281Z,1168.00
2018-09-27T08:40:19.316Z,1140.00
2018-09-27T08:41:19.245Z,1136.00
2018-09-27T08:42:19.244Z,1144.00
2018-09-27T08:43:19.296Z,1140.00
2018-09-27T08:44:19.222Z,1136.00
2018-09-27T08:45:19.497Z,1188.00
2018-09-27T08:46:19.190Z,1228.00
2018-09-27T08:47:19.181Z,1220.00
2018-09-27T08:48:19.177Z,1244.00
2018-09-27T08:49:19.211Z,1296.00
2018-09-27T08:50:19.147Z,1336.00
2018-09-27T08:51:19.152Z,1356.00
2018-09-27T08:52:19.125Z,1396.00
2018-09-27T08:53:19.111Z,1412.00
2018-09-27T08:54:19.293Z,1412.00
2018-09-27T08:55:19.125Z,1400.00
2018-09-27T08:56:19.122Z,1416.00
2018-09-27T08:57:19.074Z,1408.00
2018-09-27T08:58:19.101Z,1376.00
2018-09-27T08:59:19.051Z,1380.00
2018-09-27T09:00:19.067Z,1400.00
2018-09-27T09:01:19.034Z,1404.00
2018-09-27T09:02:19.024Z,1392.00
2018-09-27T09:03:19.086Z,1380.00
2018-09-27T09:04:19.009Z,1376.00
2018-09-27T09:05:19.017Z,1392.00
2018-09-27T09:06:18.971Z,1424.00
2018-09-27T09:07:18.962Z,1456.00
2018-09-27T09:08:18.943Z,1492.00
2018-09-27T09:09:18.924Z,1544.00
2018-09-27T09:10:18.936Z,1584.00
2018-09-27T09:11:18.954Z,1632.00
2018-09-27T09:12:18.912Z,1692.00
2018-09-27T09:13:18.883Z,1764.00
2018-09-27T09:14:18.873Z,1836.00
2018-09-27T09:15:18.856Z,1912.00
2018-09-27T09:16:18.884Z,1984.00
2018-09-27T09:17:18.848Z,1996.00
2018-09-27T09:18:18.852Z,2020.00
2018-09-27T09:19:18.814Z,2080.00
2018-09-27T09:20:18.805Z,2140.00
2018-09-27T09:21:18.791Z,2160.00
2018-09-27T09:22:18.800Z,2180.00
2018-09-27T09:23:18.769Z,2240.00
2018-09-27T09:24:18.766Z,2300.00
2018-09-27T09:25:18.740Z,2392.00
2018-09-27T09:26:18.734Z,2452.00
2018-09-27T09:27:18.744Z,2496.00
2018-09-27T09:28:18.722Z,2524.00
2018-09-27T09:29:18.775Z,2544.00
2018-09-27T09:30:18.693Z,2560.00
2018-09-27T09:31:18.701Z,2564.00
2018-09-27T09:32:18.663Z,2556.00
2018-09-27T09:33:18.690Z,2620.00
2018-09-27T09:34:18.661Z,2724.00
2018-09-27T09:35:18.621Z,2760.00
2018-09-27T09:36:18.620Z,2720.00
2018-09-27T09:37:18.670Z,2672.00
2018-09-27T09:38:18.597Z,2640.00
2018-09-27T09:39:18.598Z,2548.00
2018-09-27T09:40:18.618Z,2552.00
2018-09-27T09:41:18.560Z,2528.00
2018-09-27T09:42:18.554Z,2628.00
2018-09-27T09:43:18.567Z,1932.00
2018-09-27T09:44:18.531Z,1816.00
2018-09-27T09:45:18.546Z,1828.00
2018-09-27T09:46:18.506Z,1924.00
2018-09-27T09:47:18.489Z,1772.00
2018-09-27T09:48:18.500Z,1772.00
2018-09-27T09:49:18.504Z,1772.00
2018-09-27T09:50:18.473Z,1680.00
2018-09-27T09:51:18.458Z,1652.00
2018-09-27T09:52:18.455Z,1544.00
2018-09-27T09:53:18.437Z,1632.00
2018-09-27T09:54:18.453Z,1600.00
2018-09-27T09:55:18.401Z,1532.00
2018-09-27T09:56:18.387Z,1456.00
2018-09-27T09:57:18.378Z,1448.00
2018-09-27T09:58:18.366Z,1440.00
2018-09-27T09:59:18.376Z,1416.00
2018-09-27T10:00:18.410Z,1416.00
2018-09-27T10:01:18.336Z,1408.00
2018-09-27T10:02:18.330Z,1408.00
2018-09-27T10:03:18.314Z,1436.00
2018-09-27T10:04:18.304Z,1472.00
2018-09-27T10:05:18.297Z,1476.00
2018-09-27T10:06:18.294Z,1444.00
2018-09-27T10:07:18.269Z,1420.00
2018-09-27T10:08:18.252Z,1416.00
2018-09-27T10:09:18.241Z,1396.00
2018-09-27T10:10:18.231Z,1384.00
2018-09-27T10:11:18.246Z,1384.00
2018-09-27T10:12:18.208Z,1384.00
2018-09-27T10:13:18.204Z,1376.00
2018-09-27T10:14:18.188Z,1380.00
2018-09-27T10:15:18.178Z,1380.00
2018-09-27T10:16:18.174Z,1380.00
2018-09-27T10:17:18.144Z,1376.00
2018-09-27T10:18:18.154Z,1376.00
2018-09-27T10:19:18.127Z,1376.00
2018-09-27T10:20:18.120Z,1376.00
2018-09-27T10:21:18.115Z,1372.00
2018-09-27T10:22:18.104Z,1372.00
2018-09-27T10:23:18.087Z,1368.00
2018-09-27T10:24:18.105Z,1372.00
2018-09-27T10:25:18.071Z,1368.00
2018-09-27T10:26:18.079Z,1364.00
2018-09-27T10:27:18.061Z,1364.00
2018-09-27T10:28:18.030Z,1368.00
2018-09-27T10:29:18.025Z,1360.00
2018-09-27T10:30:18.003Z,1356.00
2018-09-27T10:31:17.989Z,1356.00
2018-09-27T10:32:18.021Z,1360.00
2018-09-27T10:33:17.971Z,1360.00
2018-09-27T10:34:18.009Z,1356.00
2018-09-27T10:35:17.950Z,1356.00
2018-09-27T10:36:17.937Z,1360.00
2018-09-27T10:37:17.950Z,1360.00
2018-09-27T10:38:17.946Z,1360.00
2018-09-27T10:39:17.909Z,1368.00
2018-09-27T10:40:17.892Z,1368.00
2018-09-27T10:41:17.883Z,1368.00
2018-09-27T10:42:17.874Z,1368.00
2018-09-27T10:43:17.856Z,1372.00
2018-09-27T10:44:17.844Z,1372.00
2018-09-27T10:45:17.852Z,1372.00
2018-09-27T10:46:17.826Z,1376.00
2018-09-27T10:47:17.813Z,1384.00
2018-09-27T10:48:17.815Z,1380.00
2018-09-27T10:49:17.783Z,1384.00
2018-09-27T10:50:17.782Z,1384.00
2018-09-27T10:51:17.826Z,1392.00
2018-09-27T10:52:17.757Z,1392.00
2018-09-27T10:53:17.755Z,1396.00
2018-09-27T10:54:17.727Z,1400.00
2018-09-27T10:55:17.716Z,1408.00
2018-09-27T10:56:17.699Z,1412.00
2018-09-27T10:57:17.829Z,1424.00
2018-09-27T10:58:17.721Z,1428.00
2018-09-27T10:59:17.670Z,1436.00
2018-09-27T11:00:17.658Z,1448.00
2018-09-27T11:01:17.654Z,1460.00
2018-09-27T11:02:17.636Z,1476.00
2018-09-27T11:03:17.655Z,1484.00
2018-09-27T11:04:17.658Z,1496.00
2018-09-27T11:05:17.593Z,1504.00
2018-09-27T11:06:17.592Z,1508.00
2018-09-27T11:07:17.582Z,1516.00
2018-09-27T11:08:17.574Z,1512.00
2018-09-27T11:09:17.594Z,1520.00
2018-09-27T11:10:17.553Z,1528.00
2018-09-27T11:11:17.589Z,1540.00
2018-09-27T11:12:17.523Z,1552.00
2018-09-27T11:13:17.509Z,1564.00
2018-09-27T11:14:17.502Z,1580.00
2018-09-27T11:15:17.544Z,1592.00
2018-09-27T11:16:17.475Z,1608.00
2018-09-27T11:17:17.466Z,1620.00
2018-09-27T11:18:17.451Z,1632.00
2018-09-27T11:19:17.446Z,1648.00
2018-09-27T11:20:17.431Z,1660.00
2018-09-27T11:21:17.440Z,1672.00
2018-09-27T11:22:17.414Z,1688.00
2018-09-27T11:23:17.399Z,1704.00
2018-09-27T11:24:17.393Z,1716.00
2018-09-27T11:25:17.377Z,1736.00
2018-09-27T11:26:17.415Z,1756.00
2018-09-27T11:27:17.367Z,1780.00
2018-09-27T11:28:17.334Z,1800.00
2018-09-27T11:29:17.335Z,1828.00
2018-09-27T11:30:17.317Z,1852.00
2018-09-27T11:31:17.316Z,1884.00
2018-09-27T11:32:17.306Z,1916.00
2018-09-27T11:33:17.288Z,1944.00
2018-09-27T11:34:17.289Z,1968.00
2018-09-27T11:35:17.268Z,2000.00
2018-09-27T11:36:17.270Z,2028.00
2018-09-27T11:37:17.248Z,2052.00
2018-09-27T11:38:17.225Z,2084.00
2018-09-27T11:39:17.207Z,2108.00
2018-09-27T11:40:17.241Z,2132.00
2018-09-27T11:41:17.191Z,2128.00
2018-09-27T11:42:17.193Z,2156.00
2018-09-27T11:43:17.176Z,2180.00
2018-09-27T11:44:17.162Z,2208.00
2018-09-27T11:45:17.149Z,2232.00
2018-09-27T11:46:17.169Z,2264.00
2018-09-27T11:47:17.147Z,2288.00
2018-09-27T11:48:17.121Z,2316.00
2018-09-27T11:49:17.289Z,2344.00
2018-09-27T11:50:17.128Z,2372.00
2018-09-27T11:51:17.077Z,2400.00
2018-09-27T11:52:17.106Z,2428.00
2018-09-27T11:53:17.055Z,2456.00
2018-09-27T11:54:17.036Z,2484.00
2018-09-27T11:55:17.034Z,2512.00
2018-09-27T11:56:17.019Z,2540.00
2018-09-27T11:57:17.031Z,2564.00
2018-09-27T11:58:17.029Z,2592.00
2018-09-27T11:59:16.987Z,2620.00
2018-09-27T12:00:16.982Z,2648.00
2018-09-27T12:01:16.967Z,2672.00
2018-09-27T12:02:16.967Z,2696.00
2018-09-27T12:03:16.947Z,2724.00
2018-09-27T12:04:16.941Z,2752.00
2018-09-27T12:05:16.913Z,2776.00
2018-09-27T12:06:16.913Z,2800.00
2018-09-27T12:07:16.911Z,2828.00
2018-09-27T12:08:16.889Z,2860.00
2018-09-27T12:09:16.873Z,2880.00
2018-09-27T12:10:16.881Z,2912.00
2018-09-27T12:11:16.853Z,2932.00
2018-09-27T12:12:16.848Z,2960.00
2018-09-27T12:13:16.841Z,2984.00
2018-09-27T12:14:16.816Z,3008.00
2018-09-27T12:15:16.805Z,3032.00
2018-09-27T12:16:16.810Z,3060.00
2018-09-27T12:17:16.794Z,3088.00
2018-09-27T12:18:16.775Z,3112.00
2018-09-27T12:19:16.757Z,3136.00
2018-09-27T12:20:16.751Z,3236.00
2018-09-27T12:21:16.745Z,3220.00
2018-09-27T12:22:16.760Z,3256.00
2018-09-27T12:23:16.715Z,3284.00
2018-09-27T12:24:16.705Z,3312.00
2018-09-27T12:25:16.705Z,3336.00
2018-09-27T12:26:16.678Z,3360.00
2018-09-27T12:27:16.675Z,3388.00
2018-09-27T12:28:16.728Z,3412.00
2018-09-27T12:29:16.670Z,3432.00
2018-09-27T12:30:16.634Z,3460.00
2018-09-27T12:31:16.636Z,3488.00
2018-09-27T12:32:16.622Z,3512.00
2018-09-27T12:33:16.628Z,3532.00
2018-09-27T12:34:16.592Z,3552.00
2018-09-27T12:35:16.583Z,3580.00
2018-09-27T12:36:16.597Z,3604.00
2018-09-27T12:37:16.561Z,3628.00